createdAt,value
2022-12-01T00:01:58.934Z,62.76
2022-12-01T00:04:25.305Z,60.96
2022-12-01T00:06:51.556Z,61.44
2022-12-01T00:09:19.886Z,60.35
2022-12-01T00:11:46.697Z,60.50
2022-12-01T00:14:12.957Z,61.87
2022-12-01T00:16:39.258Z,61.92
2022-12-01T00:19:05.666Z,62.29
2022-12-01T00:21:31.911Z,62.40
2022-12-01T00:23:58.179Z,62.72
2022-12-01T00:26:24.487Z,61.85
2022-12-01T00:28:50.739Z,61.82
2022-12-01T00:31:17.017Z,62.05
2022-12-01T00:33:43.342Z,62.34
2022-12-01T00:36:09.586Z,63.13
2022-12-01T00:38:35.844Z,61.95
2022-12-01T00:41:02.116Z,63.01
2022-12-01T00:43:28.364Z,64.03
2022-12-01T00:45:54.863Z,64.42
2022-12-01T00:48:21.153Z,64.97
2022-12-01T00:50:47.412Z,64.68
2022-12-01T00:53:13.660Z,64.22
2022-12-01T00:55:40.084Z,63.27
2022-12-01T00:58:06.344Z,62.31
2022-12-01T01:00:32.677Z,63.03
2022-12-01T01:02:58.976Z,63.20
2022-12-01T01:05:25.233Z,63.69
2022-12-01T01:07:51.546Z,62.42
2022-12-01T01:10:17.891Z,63.03
2022-12-01T01:12:44.288Z,62.40
2022-12-01T01:15:10.622Z,62.66
2022-12-01T01:17:36.906Z,61.91
2022-12-01T01:20:03.225Z,62.04
2022-12-01T01:22:29.499Z,61.41
2022-12-01T01:24:55.772Z,60.99
2022-12-01T01:27:22.080Z,61.13
2022-12-01T01:29:48.530Z,61.38
2022-12-01T01:32:14.960Z,61.16
2022-12-01T01:34:41.224Z,62.10
2022-12-01T01:37:07.522Z,62.13
2022-12-01T01:39:33.825Z,61.27
2022-12-01T01:42:00.179Z,62.09
2022-12-01T01:44:26.443Z,62.39
2022-12-01T01:46:52.709Z,61.49
2022-12-01T01:49:18.970Z,62.19
2022-12-01T01:51:45.215Z,61.76
2022-12-01T01:54:11.461Z,61.85
2022-12-01T01:56:37.734Z,61.87
2022-12-01T01:59:04.005Z,61.84
2022-12-01T02:01:30.327Z,63.45
2022-12-01T02:03:56.628Z,63.54
2022-12-01T02:06:22.949Z,64.33
2022-12-01T02:08:49.208Z,64.92
2022-12-01T02:11:15.539Z,62.80
2022-12-01T02:13:41.813Z,62.71
2022-12-01T02:16:08.074Z,62.90
2022-12-01T02:18:34.403Z,63.62
2022-12-01T02:21:00.732Z,62.27
2022-12-01T02:23:26.972Z,63.08
2022-12-01T02:25:53.300Z,64.36
2022-12-01T02:28:19.566Z,64.62
2022-12-01T02:30:45.872Z,64.22
2022-12-01T02:33:12.228Z,63.96
2022-12-01T02:35:38.503Z,62.93
2022-12-01T02:38:04.779Z,62.62
2022-12-01T02:40:31.103Z,62.53
2022-12-01T02:42:57.373Z,63.43
2022-12-01T02:45:23.632Z,63.25
2022-12-01T02:47:49.877Z,63.28
2022-12-01T02:50:16.211Z,62.92
2022-12-01T02:52:42.524Z,62.33
2022-12-01T02:55:08.780Z,62.86
2022-12-01T02:57:35.046Z,64.04
2022-12-01T03:00:01.335Z,64.38
2022-12-01T03:02:27.729Z,64.37
2022-12-01T03:04:54.056Z,63.49
2022-12-01T03:07:20.372Z,63.42
2022-12-01T03:09:47.014Z,64.12
2022-12-01T03:12:13.707Z,64.22
2022-12-01T03:14:39.965Z,64.68
2022-12-01T03:17:06.233Z,64.45
2022-12-01T03:19:32.492Z,64.24
2022-12-01T03:21:58.755Z,63.60
2022-12-01T03:24:25.023Z,64.42
2022-12-01T03:26:51.303Z,64.70
2022-12-01T03:29:17.633Z,64.57
2022-12-01T03:31:43.990Z,64.29
2022-12-01T03:34:10.300Z,63.39
2022-12-01T03:36:36.570Z,63.95
2022-12-01T03:39:02.811Z,64.42
2022-12-01T03:41:29.095Z,64.93
2022-12-01T03:43:55.374Z,65.41
2022-12-01T03:46:21.766Z,65.31
2022-12-01T03:48:48.078Z,65.41
2022-12-01T03:51:14.344Z,65.00
2022-12-01T03:53:40.600Z,64.78
2022-12-01T03:56:06.864Z,65.16
2022-12-01T03:58:33.124Z,63.54
2022-12-01T04:00:59.390Z,62.66
2022-12-01T04:03:25.660Z,61.80
2022-12-01T04:05:51.919Z,62.33
2022-12-01T04:08:18.172Z,63.50
2022-12-01T04:10:44.466Z,63.11
2022-12-01T04:13:30.713Z,63.43
2022-12-01T04:15:57.103Z,63.57
2022-12-01T04:18:23.415Z,63.74
2022-12-01T04:20:49.747Z,63.72
2022-12-01T04:23:16.034Z,64.22
2022-12-01T04:25:42.282Z,65.36
2022-12-01T04:28:08.528Z,63.20
2022-12-01T04:30:34.788Z,61.82
2022-12-01T04:33:01.056Z,62.18
2022-12-01T04:35:27.433Z,62.58
2022-12-01T04:37:53.762Z,61.95
2022-12-01T04:40:20.027Z,62.05
2022-12-01T04:42:46.413Z,62.76
2022-12-01T04:45:12.755Z,62.79
2022-12-01T04:47:39.005Z,62.03
2022-12-01T04:50:05.349Z,62.36
2022-12-01T04:52:35.275Z,61.80
2022-12-01T04:55:01.866Z,62.21
2022-12-01T04:57:28.154Z,62.55
2022-12-01T04:59:54.426Z,62.57
2022-12-01T05:02:20.848Z,61.97
2022-12-01T05:04:47.127Z,61.90
2022-12-01T05:07:13.444Z,62.67
2022-12-01T05:09:39.748Z,63.63
2022-12-01T05:12:06.023Z,63.44
2022-12-01T05:14:32.355Z,62.30
2022-12-01T05:16:58.682Z,62.76
2022-12-01T05:19:24.927Z,62.41
2022-12-01T05:21:51.265Z,63.58
2022-12-01T05:24:17.536Z,64.15
2022-12-01T05:26:43.787Z,64.30
2022-12-01T05:29:10.111Z,63.99
2022-12-01T05:31:36.447Z,64.06
2022-12-01T05:34:02.762Z,63.82
2022-12-01T05:36:29.048Z,63.11
2022-12-01T05:38:55.313Z,63.58
2022-12-01T05:41:21.568Z,62.59
2022-12-01T05:43:47.854Z,62.94
2022-12-01T05:46:14.188Z,62.74
2022-12-01T05:48:40.555Z,62.83
2022-12-01T05:51:06.880Z,63.40
2022-12-01T05:53:33.157Z,63.01
2022-12-01T05:55:59.424Z,63.90
2022-12-01T05:58:25.759Z,64.27
2022-12-01T06:00:52.077Z,63.41
2022-12-01T06:03:18.346Z,62.78
2022-12-01T06:05:44.688Z,63.12
2022-12-01T06:08:10.979Z,63.30
2022-12-01T06:10:37.283Z,62.20
2022-12-01T06:13:03.604Z,62.02
2022-12-01T06:15:29.878Z,61.33
2022-12-01T06:17:56.537Z,60.39
2022-12-01T06:20:23.010Z,60.85
2022-12-01T06:22:49.285Z,60.39
2022-12-01T06:25:15.548Z,60.06
2022-12-01T06:27:41.898Z,59.58
2022-12-01T06:30:08.211Z,59.77
2022-12-01T06:32:34.486Z,60.57
2022-12-01T06:35:01.660Z,62.15
2022-12-01T06:37:28.323Z,61.23
2022-12-01T06:39:55.067Z,61.26
2022-12-01T06:42:21.357Z,61.84
2022-12-01T06:44:47.635Z,62.61
2022-12-01T06:47:13.902Z,61.09
2022-12-01T06:49:40.158Z,61.12
2022-12-01T06:52:06.437Z,60.51
2022-12-01T06:54:32.720Z,60.23
2022-12-01T06:56:59.040Z,59.98
2022-12-01T06:59:25.511Z,59.50
2022-12-01T07:01:51.938Z,59.81
2022-12-01T07:04:18.227Z,60.43
2022-12-01T07:06:44.586Z,59.82
2022-12-01T07:09:10.872Z,60.38
2022-12-01T07:11:37.193Z,60.52
2022-12-01T07:14:03.467Z,60.32
2022-12-01T07:16:29.840Z,60.80
2022-12-01T07:18:56.471Z,60.18
2022-12-01T07:21:22.922Z,59.44
2022-12-01T07:23:49.261Z,59.05
2022-12-01T07:26:15.603Z,59.01
2022-12-01T07:28:41.921Z,59.37
2022-12-01T07:31:08.275Z,58.25
2022-12-01T07:33:34.635Z,58.16
2022-12-01T07:36:00.940Z,58.38
2022-12-01T07:38:27.214Z,58.57
2022-12-01T07:40:53.523Z,58.72
2022-12-01T07:43:19.790Z,59.24
2022-12-01T07:45:46.091Z,58.76
2022-12-01T07:48:12.455Z,56.87
2022-12-01T07:50:38.762Z,56.71
2022-12-01T07:53:05.033Z,56.41
2022-12-01T07:55:31.548Z,57.67
2022-12-01T07:57:57.948Z,56.94
2022-12-01T08:00:24.242Z,57.46
2022-12-01T08:02:50.720Z,56.79
2022-12-01T08:05:17.109Z,57.56
2022-12-01T08:07:43.467Z,56.59
2022-12-01T08:10:09.834Z,57.65
2022-12-01T08:12:36.140Z,57.79
2022-12-01T08:15:02.435Z,56.06
2022-12-01T08:17:28.728Z,55.52
2022-12-01T08:19:55.003Z,55.92
2022-12-01T08:22:21.538Z,55.58
2022-12-01T08:24:47.864Z,56.44
2022-12-01T08:27:14.134Z,58.63
2022-12-01T08:29:40.411Z,57.30
2022-12-01T08:32:06.669Z,57.49
2022-12-01T08:34:33.015Z,55.12
2022-12-01T08:36:59.309Z,55.34
2022-12-01T08:39:25.586Z,55.39
2022-12-01T08:41:51.956Z,55.14
2022-12-01T08:44:18.285Z,53.63
2022-12-01T08:46:44.662Z,53.38
2022-12-01T08:49:10.987Z,53.41
2022-12-01T08:51:37.331Z,53.62
2022-12-01T08:54:03.640Z,54.04
2022-12-01T08:56:29.891Z,53.44
2022-12-01T08:58:56.207Z,53.70
2022-12-01T09:01:22.602Z,53.33
2022-12-01T09:03:48.923Z,53.17
2022-12-01T09:06:15.240Z,52.68
2022-12-01T09:08:41.541Z,53.54
2022-12-01T09:11:07.811Z,51.93
2022-12-01T09:13:34.078Z,52.22
2022-12-01T09:16:00.398Z,53.34
2022-12-01T09:18:26.692Z,53.48
2022-12-01T09:20:52.964Z,53.62
2022-12-01T09:23:19.479Z,55.46
2022-12-01T09:25:45.817Z,57.19
2022-12-01T09:28:12.159Z,56.83
2022-12-01T09:30:39.543Z,56.75
2022-12-01T09:33:05.854Z,56.80
2022-12-01T09:35:32.255Z,58.68
2022-12-01T09:37:58.578Z,59.55
2022-12-01T09:40:24.905Z,60.19
2022-12-01T09:42:51.354Z,59.76
2022-12-01T09:45:17.663Z,59.56
2022-12-01T09:47:43.951Z,59.33
2022-12-01T09:50:10.297Z,60.51
2022-12-01T09:52:36.654Z,60.41
2022-12-01T09:55:02.993Z,60.03
2022-12-01T09:57:29.479Z,59.60
2022-12-01T09:59:57.124Z,59.14
2022-12-01T10:02:23.458Z,58.74
2022-12-01T10:04:49.849Z,58.42
2022-12-01T10:07:16.120Z,58.17
2022-12-01T10:09:42.401Z,57.27
2022-12-01T10:12:08.814Z,57.55
2022-12-01T10:14:35.113Z,58.53
2022-12-01T10:17:01.435Z,57.35
2022-12-01T10:19:27.690Z,57.01
2022-12-01T10:21:54.059Z,56.75
2022-12-01T10:24:20.340Z,56.20
2022-12-01T10:26:46.637Z,55.37
2022-12-01T10:29:13.010Z,56.11
2022-12-01T10:31:39.411Z,55.76
2022-12-01T10:34:05.677Z,55.80
2022-12-01T10:36:31.993Z,55.36
2022-12-01T10:38:58.282Z,56.11
2022-12-01T10:41:24.547Z,56.82
2022-12-01T10:43:50.985Z,56.97
2022-12-01T10:46:17.465Z,56.46
2022-12-01T10:48:43.736Z,56.57
2022-12-01T10:51:10.217Z,56.33
2022-12-01T10:53:36.594Z,56.67
2022-12-01T10:56:02.896Z,56.65
2022-12-01T10:58:29.174Z,56.42
2022-12-01T11:01:00.392Z,56.17
2022-12-01T11:03:27.322Z,57.14
2022-12-01T11:05:53.796Z,57.19
2022-12-01T11:08:20.121Z,56.95
2022-12-01T11:10:46.458Z,57.06
2022-12-01T11:13:12.787Z,56.80
2022-12-01T11:15:39.091Z,56.51
2022-12-01T11:18:05.379Z,56.64
2022-12-01T11:20:31.697Z,56.17
2022-12-01T11:22:58.044Z,56.40
2022-12-01T11:25:24.324Z,56.93
2022-12-01T11:27:50.663Z,57.58
2022-12-01T11:30:16.947Z,57.88
2022-12-01T11:32:43.266Z,57.57
2022-12-01T11:35:09.547Z,57.48
2022-12-01T11:37:35.811Z,57.92
2022-12-01T11:40:02.082Z,57.20
2022-12-01T11:42:28.364Z,57.43
2022-12-01T11:44:54.631Z,57.17
2022-12-01T11:47:23.646Z,57.58
2022-12-01T11:49:50.825Z,57.83
2022-12-01T11:52:17.207Z,58.56
2022-12-01T11:54:44.357Z,58.54
2022-12-01T11:57:33.051Z,58.72
2022-12-01T11:59:56.964Z,59.59
2022-12-01T12:02:23.306Z,59.04
2022-12-01T12:04:49.630Z,58.57
2022-12-01T12:07:15.853Z,58.00
2022-12-01T12:09:46.025Z,58.08
2022-12-01T12:12:12.345Z,57.81
2022-12-01T12:14:38.644Z,57.68
2022-12-01T12:17:04.959Z,57.96
2022-12-01T12:19:34.235Z,57.76
2022-12-01T12:22:05.768Z,57.80
2022-12-01T12:24:32.084Z,57.48
2022-12-01T12:26:58.414Z,57.20
2022-12-01T12:29:24.759Z,57.21
2022-12-01T12:31:51.028Z,57.46
2022-12-01T12:34:17.290Z,57.71
2022-12-01T12:36:43.699Z,57.95
2022-12-01T12:39:15.132Z,58.54
2022-12-01T12:41:42.967Z,58.39
2022-12-01T12:44:09.344Z,57.95
2022-12-01T12:46:36.380Z,58.38
2022-12-01T12:49:19.245Z,58.99
2022-12-01T12:51:48.271Z,58.84
2022-12-01T12:54:14.596Z,58.71
2022-12-01T12:56:40.891Z,60.10
2022-12-01T12:59:07.316Z,61.06
2022-12-01T13:01:33.689Z,61.35
2022-12-01T13:04:00.027Z,60.55
2022-12-01T13:06:26.395Z,58.25
2022-12-01T13:08:52.687Z,59.93
2022-12-01T13:11:18.959Z,58.24
2022-12-01T13:13:45.350Z,57.34
2022-12-01T13:16:11.686Z,58.27
2022-12-01T13:18:37.977Z,56.46
2022-12-01T13:21:04.271Z,56.79
2022-12-01T13:23:30.552Z,56.96
2022-12-01T13:25:56.831Z,56.96
2022-12-01T13:28:23.117Z,57.67
2022-12-01T13:30:51.135Z,58.47
2022-12-01T13:33:17.477Z,58.61
2022-12-01T13:35:43.764Z,59.29
2022-12-01T13:38:10.174Z,59.68
2022-12-01T13:40:36.433Z,59.41
2022-12-01T13:43:08.631Z,59.55
2022-12-01T13:45:36.860Z,59.57
2022-12-01T13:48:03.175Z,59.77
2022-12-01T13:50:29.439Z,59.70
2022-12-01T13:52:55.742Z,59.38
2022-12-01T13:55:22.031Z,59.46
2022-12-01T13:57:48.365Z,58.69
2022-12-01T14:00:14.701Z,59.24
2022-12-01T14:02:41.067Z,59.43
2022-12-01T14:05:07.497Z,60.20
2022-12-01T14:07:36.335Z,60.32
2022-12-01T14:10:02.672Z,60.00
2022-12-01T14:12:28.941Z,59.78
2022-12-01T14:14:55.802Z,59.72
2022-12-01T14:17:22.265Z,60.21
2022-12-01T14:19:48.604Z,60.28
2022-12-01T14:22:14.913Z,61.21
2022-12-01T14:24:41.186Z,61.08
2022-12-01T14:27:07.545Z,61.91
2022-12-01T14:29:33.900Z,61.83
2022-12-01T14:32:00.242Z,62.06
2022-12-01T14:34:26.554Z,61.65
2022-12-01T14:36:52.876Z,61.79
2022-12-01T14:39:19.151Z,62.19
2022-12-01T14:41:45.491Z,62.36
2022-12-01T14:44:11.864Z,62.11
2022-12-01T14:46:38.229Z,61.60
2022-12-01T14:49:04.640Z,61.23
2022-12-01T14:51:30.940Z,61.39
2022-12-01T14:53:57.218Z,61.68
2022-12-01T14:56:23.509Z,61.90
2022-12-01T14:58:49.850Z,61.70
2022-12-01T15:01:16.238Z,62.19
2022-12-01T15:03:42.546Z,62.46
2022-12-01T15:06:08.831Z,62.69
2022-12-01T15:09:10.465Z,62.86
2022-12-01T15:11:22.504Z,62.68
2022-12-01T15:13:48.852Z,62.65
2022-12-01T15:16:15.134Z,62.41
2022-12-01T15:18:41.453Z,62.60
2022-12-01T15:21:07.702Z,62.72
2022-12-01T15:23:33.955Z,63.14
2022-12-01T15:26:00.292Z,63.44
2022-12-01T15:28:26.578Z,63.72
2022-12-01T15:30:52.855Z,63.58
2022-12-01T15:33:24.007Z,63.91
2022-12-01T15:35:53.172Z,64.36
2022-12-01T15:38:19.620Z,64.41
2022-12-01T15:43:32.219Z,64.30
2022-12-01T15:45:58.553Z,64.59
2022-12-01T15:48:24.839Z,65.08
2022-12-01T15:50:51.171Z,65.85
2022-12-01T15:53:17.482Z,65.76
2022-12-01T15:55:43.756Z,65.68
2022-12-01T15:58:10.095Z,65.76
2022-12-01T16:00:36.461Z,65.72
2022-12-01T16:03:02.735Z,65.21
2022-12-01T16:05:29.001Z,65.39
2022-12-01T16:10:41.686Z,65.93
2022-12-01T16:13:08.003Z,66.17
2022-12-01T16:15:34.328Z,66.92
2022-12-01T16:18:00.585Z,66.42
2022-12-01T16:20:26.916Z,66.73
2022-12-01T16:22:53.204Z,66.93
2022-12-01T16:25:19.539Z,66.60
2022-12-01T16:27:45.870Z,66.44
2022-12-01T16:30:12.203Z,67.42
2022-12-01T16:32:38.478Z,67.99
2022-12-01T16:35:04.759Z,67.13
2022-12-01T16:37:31.057Z,66.91
2022-12-01T16:39:57.389Z,66.41
2022-12-01T16:42:23.778Z,66.40
2022-12-01T16:44:50.262Z,66.46
2022-12-01T16:47:16.742Z,66.14
2022-12-01T16:49:43.056Z,66.60
2022-12-01T16:52:36.656Z,66.78
2022-12-01T16:54:55.597Z,65.82
2022-12-01T16:57:21.858Z,66.06
2022-12-01T16:59:48.143Z,65.88
2022-12-01T17:02:14.565Z,65.31
2022-12-01T17:04:40.922Z,66.17
2022-12-01T17:07:07.228Z,66.96
2022-12-01T17:09:33.502Z,67.39
2022-12-01T17:11:59.953Z,68.66
2022-12-01T17:14:26.217Z,68.36
2022-12-01T17:16:52.487Z,68.32
2022-12-01T17:19:21.098Z,68.02
2022-12-01T17:21:50.189Z,67.84
2022-12-01T17:24:19.233Z,67.20
2022-12-01T17:26:45.775Z,66.99
2022-12-01T17:29:12.053Z,67.01
2022-12-01T17:31:38.781Z,67.13
2022-12-01T17:34:05.170Z,66.77
2022-12-01T17:36:31.454Z,66.41
2022-12-01T17:38:57.891Z,66.33
2022-12-01T17:41:24.406Z,66.73
2022-12-01T17:43:50.712Z,65.93
2022-12-01T17:46:17.046Z,66.54
2022-12-01T17:48:43.430Z,66.45
2022-12-01T17:51:09.712Z,65.90
2022-12-01T17:53:35.953Z,66.15
2022-12-01T17:56:02.227Z,66.32
2022-12-01T17:58:28.527Z,65.91
2022-12-01T18:00:54.816Z,65.49
2022-12-01T18:03:21.195Z,65.87
2022-12-01T18:05:47.576Z,66.25
2022-12-01T18:08:13.838Z,66.39
2022-12-01T18:10:40.100Z,66.04
2022-12-01T18:13:06.457Z,66.15
2022-12-01T18:15:34.773Z,66.18
2022-12-01T18:18:01.202Z,66.22
2022-12-01T18:20:27.636Z,65.97
2022-12-01T18:22:54.076Z,66.09
2022-12-01T18:25:20.339Z,65.21
2022-12-01T18:27:46.671Z,64.94
2022-12-01T18:30:12.983Z,64.80
2022-12-01T18:32:40.328Z,64.66
2022-12-01T18:35:06.696Z,64.03
2022-12-01T18:37:33.028Z,62.39
2022-12-01T18:39:59.308Z,62.73
2022-12-01T18:42:25.641Z,62.53
2022-12-01T18:44:52.175Z,61.01
2022-12-01T18:47:18.781Z,61.81
2022-12-01T18:49:45.052Z,61.37
2022-12-01T18:52:11.375Z,61.90
2022-12-01T18:54:37.686Z,62.62
2022-12-01T18:57:03.955Z,63.24
2022-12-01T18:59:30.271Z,60.46
2022-12-01T19:01:56.712Z,59.97
2022-12-01T19:04:23.026Z,59.97
2022-12-01T19:06:49.363Z,61.03
2022-12-01T19:09:15.705Z,60.43
2022-12-01T19:11:42.001Z,61.52
2022-12-01T19:14:08.358Z,62.36
2022-12-01T19:16:34.762Z,62.04
2022-12-01T19:19:01.248Z,62.08
2022-12-01T19:21:27.584Z,62.68
2022-12-01T19:23:53.967Z,61.71
2022-12-01T19:26:20.309Z,61.67
2022-12-01T19:28:46.597Z,62.06
2022-12-01T19:31:12.920Z,62.21
2022-12-01T19:33:39.275Z,59.73
2022-12-01T19:36:05.602Z,59.35
2022-12-01T19:38:31.908Z,59.45
2022-12-01T19:40:58.177Z,59.47
2022-12-01T19:43:24.514Z,61.59
2022-12-01T19:45:50.878Z,61.87
2022-12-01T19:48:17.224Z,61.58
2022-12-01T19:50:43.477Z,60.48
2022-12-01T19:53:09.904Z,60.52
2022-12-01T19:55:36.172Z,59.58
2022-12-01T19:58:02.473Z,59.03
2022-12-01T20:00:28.755Z,59.62
2022-12-01T20:02:55.091Z,60.71
2022-12-01T20:05:21.369Z,60.60
2022-12-01T20:07:47.776Z,60.16
2022-12-01T20:10:14.145Z,59.88
2022-12-01T20:12:40.419Z,60.05
2022-12-01T20:15:06.702Z,60.22
2022-12-01T20:17:33.058Z,61.22
2022-12-01T20:19:59.310Z,59.94
2022-12-01T20:22:25.634Z,59.82
2022-12-01T20:24:52.121Z,59.25
2022-12-01T20:27:18.569Z,59.71
2022-12-01T20:29:44.837Z,59.25
2022-12-01T20:32:11.118Z,58.21
2022-12-01T20:34:37.440Z,57.33
2022-12-01T20:37:03.710Z,57.30
2022-12-01T20:39:29.993Z,56.98
2022-12-01T20:41:56.263Z,58.53
2022-12-01T20:44:22.595Z,60.04
2022-12-01T20:46:48.911Z,61.14
2022-12-01T20:49:15.202Z,61.61
2022-12-01T20:51:41.547Z,59.49
2022-12-01T20:56:54.118Z,58.00
2022-12-01T20:59:20.407Z,57.25
2022-12-01T21:01:46.697Z,56.82
2022-12-01T21:04:13.030Z,56.22
2022-12-01T21:06:39.365Z,56.53
2022-12-01T21:09:05.612Z,57.38
2022-12-01T21:11:31.943Z,57.06
2022-12-01T21:13:58.214Z,57.58
2022-12-01T21:16:24.542Z,57.93
2022-12-01T21:18:50.922Z,58.25
2022-12-01T21:21:17.213Z,58.30
2022-12-01T21:23:43.485Z,57.57
2022-12-01T21:26:09.871Z,58.89
2022-12-01T21:28:36.164Z,58.49
2022-12-01T21:31:02.544Z,58.32
2022-12-01T21:33:28.888Z,59.04
2022-12-01T21:35:55.169Z,59.75
2022-12-01T21:38:22.226Z,59.29
2022-12-01T21:40:48.683Z,59.73
2022-12-01T21:43:15.119Z,58.34
2022-12-01T21:45:41.450Z,60.50
2022-12-01T21:48:07.776Z,59.78
2022-12-01T21:50:34.067Z,59.86
2022-12-01T21:53:00.404Z,60.20
2022-12-01T21:55:26.657Z,60.28
2022-12-01T21:57:52.918Z,59.74
2022-12-01T22:00:19.236Z,58.97
2022-12-01T22:02:45.613Z,59.10
2022-12-01T22:05:11.996Z,59.35
2022-12-01T22:07:38.318Z,59.96
2022-12-01T22:10:08.923Z,59.95
2022-12-01T22:12:35.597Z,60.36
2022-12-01T22:15:01.865Z,60.60
2022-12-01T22:17:28.202Z,60.66
2022-12-01T22:19:54.565Z,60.85
2022-12-01T22:22:20.832Z,59.99
2022-12-01T22:24:47.118Z,60.06
2022-12-01T22:27:13.398Z,60.11
2022-12-01T22:29:39.681Z,61.13
2022-12-01T22:32:06.027Z,61.29
2022-12-01T22:34:32.324Z,60.85
2022-12-01T22:36:58.665Z,61.57
2022-12-01T22:39:25.004Z,61.11
2022-12-01T22:41:51.299Z,61.01
2022-12-01T22:44:17.568Z,61.73
2022-12-01T22:46:43.924Z,61.75
2022-12-01T22:49:10.221Z,62.16
2022-12-01T22:51:36.549Z,61.25
2022-12-01T22:54:02.869Z,61.34
2022-12-01T22:56:29.147Z,61.58
2022-12-01T22:58:55.417Z,62.62
2022-12-01T23:01:21.786Z,61.89
2022-12-01T23:03:48.138Z,62.69
2022-12-01T23:06:14.453Z,64.37
2022-12-01T23:08:40.791Z,63.45
2022-12-01T23:11:07.054Z,62.01
2022-12-01T23:13:33.320Z,62.16
2022-12-01T23:15:59.690Z,62.77
2022-12-01T23:18:25.990Z,63.30
2022-12-01T23:20:52.240Z,64.28
2022-12-01T23:23:18.563Z,64.21
2022-12-01T23:25:44.862Z,63.74
2022-12-01T23:28:11.136Z,62.68
2022-12-01T23:30:37.472Z,62.39
2022-12-01T23:33:04.163Z,62.12
2022-12-01T23:35:30.438Z,62.61
2022-12-01T23:37:56.976Z,63.37
2022-12-01T23:40:23.284Z,62.79
2022-12-01T23:42:49.591Z,63.32
2022-12-01T23:45:15.991Z,63.40
2022-12-01T23:47:42.288Z,63.70
2022-12-01T23:50:08.547Z,63.07
2022-12-01T23:52:34.822Z,62.58
2022-12-01T23:55:01.081Z,62.05
2022-12-01T23:57:27.407Z,61.95
2022-12-01T23:59:53.700Z,61.65
